sensor_id;sensor_type;location;lat;lon;timestamp;P1;durP1;ratioP1;P2;durP2;ratioP2
9821;SDS011;4950;46.042;14.472;2023-05-29T00:01:33;11.05;;;6.63;;
9821;SDS011;4950;46.042;14.472;2023-05-29T00:04:01;12.45;;;6.25;;
9821;SDS011;4950;46.042;14.472;2023-05-29T00:06:27;12.52;;;5.90;;
9821;SDS011;4950;46.042;14.472;2023-05-29T00:08:56;11.23;;;5.95;;
9821;SDS011;4950;46.042;14.472;2023-05-29T00:11:22;9.02;;;5.57;;
9821;SDS011;4950;46.042;14.472;2023-05-29T00:13:49;11.77;;;5.63;;
9821;SDS011;4950;46.042;14.472;2023-05-29T00:16:15;11.18;;;5.28;;
9821;SDS011;4950;46.042;14.472;2023-05-29T00:18:42;13.40;;;6.05;;
9821;SDS011;4950;46.042;14.472;2023-05-29T00:21:10;12.50;;;5.45;;
9821;SDS011;4950;46.042;14.472;2023-05-29T00:23:37;9.48;;;5.88;;
9821;SDS011;4950;46.042;14.472;2023-05-29T00:26:05;11.05;;;5.80;;
9821;SDS011;4950;46.042;14.472;2023-05-29T00:28:32;10.75;;;6.15;;
9821;SDS011;4950;46.042;14.472;2023-05-29T00:30:59;11.00;;;5.47;;
9821;SDS011;4950;46.042;14.472;2023-05-29T00:33:25;9.95;;;5.78;;
9821;SDS011;4950;46.042;14.472;2023-05-29T00:35:52;13.25;;;6.50;;
9821;SDS011;4950;46.042;14.472;2023-05-29T00:38:19;10.77;;;6.10;;
9821;SDS011;4950;46.042;14.472;2023-05-29T00:40:45;9.98;;;5.30;;
9821;SDS011;4950;46.042;14.472;2023-05-29T00:43:14;11.85;;;5.95;;
9821;SDS011;4950;46.042;14.472;2023-05-29T00:45:40;12.05;;;5.63;;
9821;SDS011;4950;46.042;14.472;2023-05-29T00:48:07;14.40;;;6.13;;
9821;SDS011;4950;46.042;14.472;2023-05-29T00:50:34;13.55;;;6.72;;
9821;SDS011;4950;46.042;14.472;2023-05-29T00:53:01;12.82;;;6.30;;
9821;SDS011;4950;46.042;14.472;2023-05-29T00:55:28;12.60;;;6.25;;
9821;SDS011;4950;46.042;14.472;2023-05-29T00:57:55;10.20;;;6.47;;
9821;SDS011;4950;46.042;14.472;2023-05-29T01:00:23;15.30;;;7.28;;
9821;SDS011;4950;46.042;14.472;2023-05-29T01:02:50;14.07;;;7.85;;
9821;SDS011;4950;46.042;14.472;2023-05-29T01:05:18;13.30;;;7.30;;
9821;SDS011;4950;46.042;14.472;2023-05-29T01:07:46;11.45;;;7.07;;
9821;SDS011;4950;46.042;14.472;2023-05-29T01:10:14;12.65;;;7.32;;
9821;SDS011;4950;46.042;14.472;2023-05-29T01:12:43;14.70;;;7.13;;
9821;SDS011;4950;46.042;14.472;2023-05-29T01:15:16;13.75;;;7.47;;
9821;SDS011;4950;46.042;14.472;2023-05-29T01:17:53;13.15;;;6.95;;
9821;SDS011;4950;46.042;14.472;2023-05-29T01:20:38;15.73;;;8.45;;
9821;SDS011;4950;46.042;14.472;2023-05-29T01:23:16;19.02;;;8.63;;
9821;SDS011;4950;46.042;14.472;2023-05-29T01:28:40;15.45;;;8.07;;
9821;SDS011;4950;46.042;14.472;2023-05-29T01:31:08;14.82;;;8.43;;
9821;SDS011;4950;46.042;14.472;2023-05-29T01:33:38;12.55;;;7.60;;
9821;SDS011;4950;46.042;14.472;2023-05-29T01:38:33;13.23;;;7.13;;
9821;SDS011;4950;46.042;14.472;2023-05-29T01:41:13;13.80;;;7.32;;
9821;SDS011;4950;46.042;14.472;2023-05-29T01:44:20;14.55;;;7.40;;
9821;SDS011;4950;46.042;14.472;2023-05-29T01:46:48;17.90;;;7.72;;
9821;SDS011;4950;46.042;14.472;2023-05-29T01:49:15;13.25;;;7.18;;
9821;SDS011;4950;46.042;14.472;2023-05-29T01:51:43;13.48;;;7.53;;
9821;SDS011;4950;46.042;14.472;2023-05-29T01:54:10;14.45;;;7.90;;
9821;SDS011;4950;46.042;14.472;2023-05-29T01:56:37;15.27;;;7.88;;
9821;SDS011;4950;46.042;14.472;2023-05-29T01:59:04;13.30;;;7.50;;
9821;SDS011;4950;46.042;14.472;2023-05-29T02:01:33;11.63;;;7.20;;
9821;SDS011;4950;46.042;14.472;2023-05-29T02:04:00;14.88;;;7.68;;
9821;SDS011;4950;46.042;14.472;2023-05-29T02:06:26;16.00;;;7.70;;
9821;SDS011;4950;46.042;14.472;2023-05-29T02:08:53;15.43;;;7.57;;
9821;SDS011;4950;46.042;14.472;2023-05-29T02:18:13;15.05;;;7.82;;
9821;SDS011;4950;46.042;14.472;2023-05-29T02:20:42;15.55;;;7.80;;
9821;SDS011;4950;46.042;14.472;2023-05-29T02:23:09;15.23;;;7.85;;
9821;SDS011;4950;46.042;14.472;2023-05-29T02:25:35;13.32;;;7.93;;
9821;SDS011;4950;46.042;14.472;2023-05-29T02:28:02;17.17;;;8.23;;
9821;SDS011;4950;46.042;14.472;2023-05-29T02:30:30;18.02;;;8.05;;
9821;SDS011;4950;46.042;14.472;2023-05-29T02:32:56;12.60;;;8.48;;
9821;SDS011;4950;46.042;14.472;2023-05-29T02:35:25;14.00;;;8.63;;
9821;SDS011;4950;46.042;14.472;2023-05-29T02:37:51;21.98;;;9.57;;
9821;SDS011;4950;46.042;14.472;2023-05-29T02:40:19;15.60;;;10.02;;
9821;SDS011;4950;46.042;14.472;2023-05-29T02:42:46;15.75;;;10.23;;
9821;SDS011;4950;46.042;14.472;2023-05-29T02:45:13;20.40;;;10.35;;
9821;SDS011;4950;46.042;14.472;2023-05-29T02:47:40;20.20;;;10.82;;
9821;SDS011;4950;46.042;14.472;2023-05-29T02:50:06;19.02;;;10.05;;
9821;SDS011;4950;46.042;14.472;2023-05-29T02:52:35;14.85;;;8.60;;
9821;SDS011;4950;46.042;14.472;2023-05-29T02:55:02;17.13;;;9.70;;
9821;SDS011;4950;46.042;14.472;2023-05-29T02:57:30;19.90;;;10.32;;
9821;SDS011;4950;46.042;14.472;2023-05-29T02:59:57;17.10;;;9.38;;
9821;SDS011;4950;46.042;14.472;2023-05-29T03:05:45;16.17;;;8.57;;
9821;SDS011;4950;46.042;14.472;2023-05-29T03:08:13;16.95;;;10.15;;
9821;SDS011;4950;46.042;14.472;2023-05-29T03:10:40;16.58;;;9.63;;
9821;SDS011;4950;46.042;14.472;2023-05-29T03:16:22;16.05;;;8.95;;
9821;SDS011;4950;46.042;14.472;2023-05-29T03:22:19;19.27;;;8.77;;
9821;SDS011;4950;46.042;14.472;2023-05-29T03:24:47;16.30;;;9.00;;
9821;SDS011;4950;46.042;14.472;2023-05-29T03:27:13;20.42;;;9.75;;
9821;SDS011;4950;46.042;14.472;2023-05-29T03:29:40;18.10;;;8.82;;
9821;SDS011;4950;46.042;14.472;2023-05-29T03:32:06;16.40;;;9.32;;
9821;SDS011;4950;46.042;14.472;2023-05-29T03:34:33;17.88;;;10.05;;
9821;SDS011;4950;46.042;14.472;2023-05-29T03:37:00;19.27;;;8.98;;
9821;SDS011;4950;46.042;14.472;2023-05-29T03:39:27;17.02;;;8.93;;
9821;SDS011;4950;46.042;14.472;2023-05-29T03:41:55;15.00;;;8.32;;
9821;SDS011;4950;46.042;14.472;2023-05-29T03:44:22;17.83;;;8.32;;
9821;SDS011;4950;46.042;14.472;2023-05-29T03:46:48;15.23;;;9.02;;
9821;SDS011;4950;46.042;14.472;2023-05-29T03:49:16;16.02;;;8.85;;
9821;SDS011;4950;46.042;14.472;2023-05-29T03:51:42;17.92;;;9.02;;
9821;SDS011;4950;46.042;14.472;2023-05-29T03:57:16;15.25;;;10.27;;
9821;SDS011;4950;46.042;14.472;2023-05-29T03:59:42;15.63;;;9.30;;
9821;SDS011;4950;46.042;14.472;2023-05-29T04:02:09;15.05;;;9.32;;
9821;SDS011;4950;46.042;14.472;2023-05-29T04:04:36;16.50;;;9.35;;
9821;SDS011;4950;46.042;14.472;2023-05-29T04:07:04;15.50;;;9.00;;
9821;SDS011;4950;46.042;14.472;2023-05-29T04:09:31;14.35;;;9.32;;
9821;SDS011;4950;46.042;14.472;2023-05-29T04:11:59;24.38;;;9.00;;
9821;SDS011;4950;46.042;14.472;2023-05-29T04:18:05;17.80;;;8.93;;
9821;SDS011;4950;46.042;14.472;2023-05-29T04:20:32;19.92;;;10.15;;
9821;SDS011;4950;46.042;14.472;2023-05-29T04:22:58;16.42;;;9.15;;
9821;SDS011;4950;46.042;14.472;2023-05-29T04:25:25;20.15;;;9.75;;
9821;SDS011;4950;46.042;14.472;2023-05-29T04:27:51;22.05;;;10.07;;
9821;SDS011;4950;46.042;14.472;2023-05-29T04:30:18;19.75;;;9.95;;
9821;SDS011;4950;46.042;14.472;2023-05-29T04:32:45;18.52;;;9.93;;
9821;SDS011;4950;46.042;14.472;2023-05-29T04:35:13;18.88;;;10.15;;
9821;SDS011;4950;46.042;14.472;2023-05-29T04:37:40;22.95;;;10.32;;
9821;SDS011;4950;46.042;14.472;2023-05-29T04:40:09;18.77;;;9.70;;
9821;SDS011;4950;46.042;14.472;2023-05-29T04:42:36;18.83;;;10.15;;
9821;SDS011;4950;46.042;14.472;2023-05-29T04:45:03;20.45;;;10.05;;
9821;SDS011;4950;46.042;14.472;2023-05-29T04:47:30;20.67;;;10.15;;
9821;SDS011;4950;46.042;14.472;2023-05-29T04:49:58;17.58;;;9.68;;
9821;SDS011;4950;46.042;14.472;2023-05-29T04:52:26;20.33;;;9.27;;
9821;SDS011;4950;46.042;14.472;2023-05-29T04:58:15;15.88;;;9.57;;
9821;SDS011;4950;46.042;14.472;2023-05-29T05:00:41;16.55;;;9.30;;
9821;SDS011;4950;46.042;14.472;2023-05-29T05:03:08;16.88;;;10.18;;
9821;SDS011;4950;46.042;14.472;2023-05-29T05:05:35;15.82;;;9.23;;
9821;SDS011;4950;46.042;14.472;2023-05-29T05:08:03;21.75;;;9.90;;
9821;SDS011;4950;46.042;14.472;2023-05-29T05:10:30;21.57;;;9.20;;
9821;SDS011;4950;46.042;14.472;2023-05-29T05:12:57;28.90;;;12.02;;
9821;SDS011;4950;46.042;14.472;2023-05-29T05:15:23;28.00;;;11.90;;
9821;SDS011;4950;46.042;14.472;2023-05-29T05:17:50;25.52;;;12.77;;
9821;SDS011;4950;46.042;14.472;2023-05-29T05:20:17;23.52;;;11.63;;
9821;SDS011;4950;46.042;14.472;2023-05-29T05:22:43;18.98;;;10.68;;
9821;SDS011;4950;46.042;14.472;2023-05-29T05:25:11;23.10;;;10.45;;
9821;SDS011;4950;46.042;14.472;2023-05-29T05:27:38;20.05;;;11.48;;
9821;SDS011;4950;46.042;14.472;2023-05-29T05:30:05;25.27;;;10.73;;
9821;SDS011;4950;46.042;14.472;2023-05-29T05:32:32;24.05;;;10.45;;
9821;SDS011;4950;46.042;14.472;2023-05-29T05:34:59;27.05;;;10.45;;
9821;SDS011;4950;46.042;14.472;2023-05-29T05:37:26;22.13;;;9.43;;
9821;SDS011;4950;46.042;14.472;2023-05-29T05:39:52;22.55;;;9.13;;
9821;SDS011;4950;46.042;14.472;2023-05-29T05:42:20;34.90;;;10.02;;
9821;SDS011;4950;46.042;14.472;2023-05-29T05:44:47;25.88;;;10.48;;
9821;SDS011;4950;46.042;14.472;2023-05-29T05:47:13;28.83;;;9.65;;
9821;SDS011;4950;46.042;14.472;2023-05-29T05:49:40;22.48;;;10.13;;
9821;SDS011;4950;46.042;14.472;2023-05-29T05:52:08;25.13;;;10.07;;
9821;SDS011;4950;46.042;14.472;2023-05-29T05:54:35;28.42;;;10.77;;
9821;SDS011;4950;46.042;14.472;2023-05-29T05:57:01;22.27;;;9.18;;
9821;SDS011;4950;46.042;14.472;2023-05-29T05:59:29;23.45;;;9.82;;
9821;SDS011;4950;46.042;14.472;2023-05-29T06:01:56;17.10;;;9.27;;
9821;SDS011;4950;46.042;14.472;2023-05-29T06:04:23;20.67;;;9.85;;
9821;SDS011;4950;46.042;14.472;2023-05-29T06:06:49;18.58;;;9.95;;
9821;SDS011;4950;46.042;14.472;2023-05-29T06:09:16;17.42;;;9.50;;
9821;SDS011;4950;46.042;14.472;2023-05-29T06:11:42;26.08;;;11.10;;
9821;SDS011;4950;46.042;14.472;2023-05-29T06:14:10;36.10;;;12.20;;
9821;SDS011;4950;46.042;14.472;2023-05-29T06:16:38;20.58;;;10.80;;
9821;SDS011;4950;46.042;14.472;2023-05-29T06:19:04;19.02;;;10.63;;
9821;SDS011;4950;46.042;14.472;2023-05-29T06:21:31;24.67;;;10.65;;
9821;SDS011;4950;46.042;14.472;2023-05-29T06:23:58;24.38;;;11.27;;
9821;SDS011;4950;46.042;14.472;2023-05-29T06:26:24;22.67;;;10.15;;
9821;SDS011;4950;46.042;14.472;2023-05-29T06:28:51;20.55;;;10.10;;
9821;SDS011;4950;46.042;14.472;2023-05-29T06:31:18;23.38;;;10.88;;
9821;SDS011;4950;46.042;14.472;2023-05-29T06:33:46;21.50;;;11.50;;
9821;SDS011;4950;46.042;14.472;2023-05-29T06:36:13;31.13;;;12.82;;
9821;SDS011;4950;46.042;14.472;2023-05-29T06:38:39;14.70;;;9.02;;
9821;SDS011;4950;46.042;14.472;2023-05-29T06:41:06;24.27;;;9.95;;
9821;SDS011;4950;46.042;14.472;2023-05-29T06:43:32;18.00;;;9.40;;
9821;SDS011;4950;46.042;14.472;2023-05-29T06:45:59;17.98;;;9.88;;
9821;SDS011;4950;46.042;14.472;2023-05-29T06:48:26;17.23;;;9.15;;
9821;SDS011;4950;46.042;14.472;2023-05-29T06:50:53;17.08;;;9.32;;
9821;SDS011;4950;46.042;14.472;2023-05-29T06:53:20;21.80;;;9.52;;
9821;SDS011;4950;46.042;14.472;2023-05-29T06:55:47;16.45;;;8.20;;
9821;SDS011;4950;46.042;14.472;2023-05-29T06:58:13;19.48;;;8.80;;
9821;SDS011;4950;46.042;14.472;2023-05-29T07:00:40;19.92;;;9.30;;
9821;SDS011;4950;46.042;14.472;2023-05-29T07:03:06;17.77;;;9.02;;
9821;SDS011;4950;46.042;14.472;2023-05-29T07:05:33;17.55;;;8.32;;
9821;SDS011;4950;46.042;14.472;2023-05-29T07:08:01;15.63;;;8.63;;
9821;SDS011;4950;46.042;14.472;2023-05-29T07:10:27;17.17;;;8.18;;
9821;SDS011;4950;46.042;14.472;2023-05-29T07:12:54;19.40;;;8.15;;
9821;SDS011;4950;46.042;14.472;2023-05-29T07:15:21;13.90;;;8.00;;
9821;SDS011;4950;46.042;14.472;2023-05-29T07:17:47;16.70;;;8.27;;
9821;SDS011;4950;46.042;14.472;2023-05-29T07:20:14;20.45;;;8.80;;
9821;SDS011;4950;46.042;14.472;2023-05-29T07:22:41;14.13;;;7.30;;
9821;SDS011;4950;46.042;14.472;2023-05-29T07:25:09;14.63;;;7.97;;
9821;SDS011;4950;46.042;14.472;2023-05-29T07:27:36;15.13;;;8.20;;
9821;SDS011;4950;46.042;14.472;2023-05-29T07:30:03;16.88;;;8.18;;
9821;SDS011;4950;46.042;14.472;2023-05-29T07:32:30;17.05;;;7.85;;
9821;SDS011;4950;46.042;14.472;2023-05-29T07:34:57;13.80;;;7.32;;
9821;SDS011;4950;46.042;14.472;2023-05-29T07:37:23;14.88;;;7.38;;
9821;SDS011;4950;46.042;14.472;2023-05-29T07:39:50;15.93;;;7.43;;
9821;SDS011;4950;46.042;14.472;2023-05-29T07:42:18;17.02;;;7.18;;
9821;SDS011;4950;46.042;14.472;2023-05-29T07:44:44;30.25;;;8.23;;
9821;SDS011;4950;46.042;14.472;2023-05-29T07:47:13;11.87;;;7.07;;
9821;SDS011;4950;46.042;14.472;2023-05-29T07:49:40;19.38;;;7.45;;
9821;SDS011;4950;46.042;14.472;2023-05-29T07:52:06;16.75;;;7.60;;
9821;SDS011;4950;46.042;14.472;2023-05-29T07:54:33;18.02;;;6.78;;
9821;SDS011;4950;46.042;14.472;2023-05-29T07:57:00;12.80;;;7.03;;
9821;SDS011;4950;46.042;14.472;2023-05-29T07:59:29;12.75;;;6.88;;
9821;SDS011;4950;46.042;14.472;2023-05-29T08:01:55;15.98;;;7.35;;
9821;SDS011;4950;46.042;14.472;2023-05-29T08:04:23;16.45;;;6.90;;
9821;SDS011;4950;46.042;14.472;2023-05-29T08:06:49;18.00;;;7.57;;
9821;SDS011;4950;46.042;14.472;2023-05-29T08:09:16;14.63;;;6.80;;
9821;SDS011;4950;46.042;14.472;2023-05-29T08:11:43;14.90;;;7.20;;
9821;SDS011;4950;46.042;14.472;2023-05-29T08:14:11;19.50;;;7.38;;
9821;SDS011;4950;46.042;14.472;2023-05-29T08:16:39;15.20;;;6.40;;
9821;SDS011;4950;46.042;14.472;2023-05-29T08:19:05;12.43;;;6.13;;
9821;SDS011;4950;46.042;14.472;2023-05-29T08:21:32;11.77;;;6.40;;
9821;SDS011;4950;46.042;14.472;2023-05-29T08:23:59;13.23;;;6.75;;
9821;SDS011;4950;46.042;14.472;2023-05-29T08:26:25;10.60;;;5.78;;
9821;SDS011;4950;46.042;14.472;2023-05-29T08:28:55;11.20;;;6.32;;
9821;SDS011;4950;46.042;14.472;2023-05-29T08:31:22;16.15;;;7.03;;
9821;SDS011;4950;46.042;14.472;2023-05-29T08:33:51;14.47;;;5.80;;
9821;SDS011;4950;46.042;14.472;2023-05-29T08:36:18;13.40;;;6.55;;
9821;SDS011;4950;46.042;14.472;2023-05-29T08:38:46;13.90;;;5.65;;
9821;SDS011;4950;46.042;14.472;2023-05-29T08:41:13;16.27;;;6.75;;
9821;SDS011;4950;46.042;14.472;2023-05-29T08:43:47;11.65;;;6.07;;
9821;SDS011;4950;46.042;14.472;2023-05-29T08:46:15;15.45;;;6.40;;
9821;SDS011;4950;46.042;14.472;2023-05-29T08:48:46;13.48;;;6.93;;
9821;SDS011;4950;46.042;14.472;2023-05-29T08:51:16;14.63;;;6.10;;
9821;SDS011;4950;46.042;14.472;2023-05-29T08:53:46;17.80;;;6.40;;
9821;SDS011;4950;46.042;14.472;2023-05-29T08:56:13;13.50;;;5.72;;
9821;SDS011;4950;46.042;14.472;2023-05-29T08:58:40;13.82;;;6.45;;
9821;SDS011;4950;46.042;14.472;2023-05-29T09:01:09;14.03;;;6.63;;
9821;SDS011;4950;46.042;14.472;2023-05-29T09:03:36;18.42;;;6.22;;
9821;SDS011;4950;46.042;14.472;2023-05-29T09:06:03;13.75;;;5.97;;
9821;SDS011;4950;46.042;14.472;2023-05-29T09:08:33;10.63;;;5.88;;
9821;SDS011;4950;46.042;14.472;2023-05-29T09:11:00;16.40;;;5.63;;
9821;SDS011;4950;46.042;14.472;2023-05-29T09:13:26;16.48;;;6.88;;
9821;SDS011;4950;46.042;14.472;2023-05-29T09:15:56;14.38;;;6.15;;
9821;SDS011;4950;46.042;14.472;2023-05-29T09:18:23;16.65;;;6.65;;
9821;SDS011;4950;46.042;14.472;2023-05-29T09:20:54;10.93;;;5.55;;
9821;SDS011;4950;46.042;14.472;2023-05-29T09:23:21;13.80;;;6.15;;
9821;SDS011;4950;46.042;14.472;2023-05-29T09:25:50;13.30;;;6.07;;
9821;SDS011;4950;46.042;14.472;2023-05-29T09:28:18;9.80;;;5.07;;
9821;SDS011;4950;46.042;14.472;2023-05-29T09:30:48;16.05;;;5.55;;
9821;SDS011;4950;46.042;14.472;2023-05-29T09:33:15;12.45;;;5.70;;
9821;SDS011;4950;46.042;14.472;2023-05-29T09:35:43;12.90;;;4.95;;
9821;SDS011;4950;46.042;14.472;2023-05-29T09:38:11;11.68;;;5.25;;
9821;SDS011;4950;46.042;14.472;2023-05-29T09:40:39;10.60;;;4.90;;
9821;SDS011;4950;46.042;14.472;2023-05-29T09:43:10;10.57;;;5.07;;
9821;SDS011;4950;46.042;14.472;2023-05-29T09:45:39;10.75;;;4.88;;
9821;SDS011;4950;46.042;14.472;2023-05-29T09:48:07;9.27;;;5.10;;
9821;SDS011;4950;46.042;14.472;2023-05-29T09:50:34;11.23;;;5.10;;
9821;SDS011;4950;46.042;14.472;2023-05-29T09:53:01;7.82;;;4.45;;
9821;SDS011;4950;46.042;14.472;2023-05-29T09:55:28;9.55;;;4.50;;
9821;SDS011;4950;46.042;14.472;2023-05-29T09:57:57;13.80;;;5.88;;
9821;SDS011;4950;46.042;14.472;2023-05-29T10:00:26;11.73;;;5.10;;
9821;SDS011;4950;46.042;14.472;2023-05-29T10:02:56;8.38;;;4.50;;
9821;SDS011;4950;46.042;14.472;2023-05-29T10:05:22;11.95;;;4.43;;
9821;SDS011;4950;46.042;14.472;2023-05-29T10:07:49;11.02;;;4.50;;
9821;SDS011;4950;46.042;14.472;2023-05-29T10:10:20;13.15;;;5.15;;
9821;SDS011;4950;46.042;14.472;2023-05-29T10:12:48;8.82;;;5.28;;
9821;SDS011;4950;46.042;14.472;2023-05-29T10:15:16;14.02;;;4.90;;
9821;SDS011;4950;46.042;14.472;2023-05-29T10:17:50;11.05;;;5.50;;
9821;SDS011;4950;46.042;14.472;2023-05-29T10:20:21;10.02;;;4.93;;
9821;SDS011;4950;46.042;14.472;2023-05-29T10:22:50;11.57;;;4.57;;
9821;SDS011;4950;46.042;14.472;2023-05-29T10:25:18;9.05;;;4.70;;
9821;SDS011;4950;46.042;14.472;2023-05-29T10:27:46;11.45;;;5.72;;
9821;SDS011;4950;46.042;14.472;2023-05-29T10:30:15;11.87;;;5.07;;
9821;SDS011;4950;46.042;14.472;2023-05-29T10:36:00;8.68;;;4.65;;
9821;SDS011;4950;46.042;14.472;2023-05-29T10:38:33;17.02;;;4.30;;
9821;SDS011;4950;46.042;14.472;2023-05-29T10:43:54;13.27;;;4.82;;
9821;SDS011;4950;46.042;14.472;2023-05-29T10:46:25;11.00;;;4.70;;
9821;SDS011;4950;46.042;14.472;2023-05-29T10:49:28;10.63;;;4.85;;
9821;SDS011;4950;46.042;14.472;2023-05-29T10:51:55;10.43;;;4.75;;
9821;SDS011;4950;46.042;14.472;2023-05-29T10:54:24;13.68;;;5.60;;
9821;SDS011;4950;46.042;14.472;2023-05-29T10:56:52;11.63;;;4.90;;
9821;SDS011;4950;46.042;14.472;2023-05-29T10:59:21;11.40;;;5.55;;
9821;SDS011;4950;46.042;14.472;2023-05-29T11:01:50;10.25;;;5.32;;
9821;SDS011;4950;46.042;14.472;2023-05-29T11:04:31;10.73;;;5.00;;
9821;SDS011;4950;46.042;14.472;2023-05-29T11:07:00;14.57;;;4.90;;
9821;SDS011;4950;46.042;14.472;2023-05-29T11:09:31;8.13;;;4.75;;
9821;SDS011;4950;46.042;14.472;2023-05-29T11:12:13;7.93;;;4.38;;
9821;SDS011;4950;46.042;14.472;2023-05-29T11:14:53;8.55;;;4.72;;
9821;SDS011;4950;46.042;14.472;2023-05-29T11:20:28;11.73;;;4.90;;
9821;SDS011;4950;46.042;14.472;2023-05-29T11:23:02;8.50;;;4.90;;
9821;SDS011;4950;46.042;14.472;2023-05-29T11:25:33;8.35;;;4.60;;
9821;SDS011;4950;46.042;14.472;2023-05-29T11:28:01;9.70;;;4.22;;
9821;SDS011;4950;46.042;14.472;2023-05-29T11:30:33;8.10;;;4.40;;
9821;SDS011;4950;46.042;14.472;2023-05-29T11:33:13;9.53;;;4.97;;
9821;SDS011;4950;46.042;14.472;2023-05-29T11:35:50;7.25;;;4.25;;
9821;SDS011;4950;46.042;14.472;2023-05-29T11:38:22;10.85;;;4.57;;
9821;SDS011;4950;46.042;14.472;2023-05-29T11:40:49;9.60;;;4.72;;
9821;SDS011;4950;46.042;14.472;2023-05-29T11:43:16;11.27;;;4.60;;
9821;SDS011;4950;46.042;14.472;2023-05-29T11:45:42;8.40;;;4.18;;
9821;SDS011;4950;46.042;14.472;2023-05-29T11:48:09;14.27;;;4.90;;
9821;SDS011;4950;46.042;14.472;2023-05-29T11:50:36;12.98;;;4.70;;
9821;SDS011;4950;46.042;14.472;2023-05-29T11:53:05;10.68;;;4.70;;
9821;SDS011;4950;46.042;14.472;2023-05-29T11:55:33;10.23;;;5.00;;
9821;SDS011;4950;46.042;14.472;2023-05-29T11:58:00;13.65;;;4.88;;
9821;SDS011;4950;46.042;14.472;2023-05-29T12:00:30;9.90;;;4.97;;
9821;SDS011;4950;46.042;14.472;2023-05-29T12:02:58;8.13;;;4.20;;
9821;SDS011;4950;46.042;14.472;2023-05-29T12:05:28;9.88;;;5.35;;
9821;SDS011;4950;46.042;14.472;2023-05-29T12:07:55;8.43;;;4.72;;
9821;SDS011;4950;46.042;14.472;2023-05-29T12:10:24;9.88;;;4.75;;
9821;SDS011;4950;46.042;14.472;2023-05-29T12:12:51;10.18;;;4.80;;
9821;SDS011;4950;46.042;14.472;2023-05-29T12:15:18;10.97;;;4.90;;
9821;SDS011;4950;46.042;14.472;2023-05-29T12:17:46;11.82;;;5.15;;
9821;SDS011;4950;46.042;14.472;2023-05-29T12:20:14;8.00;;;4.30;;
9821;SDS011;4950;46.042;14.472;2023-05-29T12:22:42;10.67;;;4.37;;
9821;SDS011;4950;46.042;14.472;2023-05-29T12:25:10;9.85;;;4.82;;
9821;SDS011;4950;46.042;14.472;2023-05-29T12:27:40;9.88;;;4.55;;
9821;SDS011;4950;46.042;14.472;2023-05-29T12:30:08;10.75;;;4.47;;
9821;SDS011;4950;46.042;14.472;2023-05-29T12:32:36;8.93;;;4.32;;
9821;SDS011;4950;46.042;14.472;2023-05-29T12:35:13;9.43;;;4.30;;
9821;SDS011;4950;46.042;14.472;2023-05-29T12:37:43;7.65;;;4.43;;
9821;SDS011;4950;46.042;14.472;2023-05-29T12:40:11;7.55;;;4.45;;
9821;SDS011;4950;46.042;14.472;2023-05-29T12:42:41;9.80;;;4.25;;
9821;SDS011;4950;46.042;14.472;2023-05-29T12:45:08;9.68;;;4.30;;
9821;SDS011;4950;46.042;14.472;2023-05-29T12:47:35;9.25;;;4.68;;
9821;SDS011;4950;46.042;14.472;2023-05-29T12:50:17;7.35;;;4.55;;
9821;SDS011;4950;46.042;14.472;2023-05-29T12:52:46;10.07;;;4.72;;
9821;SDS011;4950;46.042;14.472;2023-05-29T12:55:18;9.40;;;4.80;;
9821;SDS011;4950;46.042;14.472;2023-05-29T12:57:46;8.13;;;4.57;;
9821;SDS011;4950;46.042;14.472;2023-05-29T13:00:13;7.95;;;4.75;;
9821;SDS011;4950;46.042;14.472;2023-05-29T13:02:40;11.75;;;5.10;;
9821;SDS011;4950;46.042;14.472;2023-05-29T13:05:07;8.75;;;4.90;;
9821;SDS011;4950;46.042;14.472;2023-05-29T13:07:34;9.77;;;5.25;;
9821;SDS011;4950;46.042;14.472;2023-05-29T13:10:00;8.07;;;5.25;;
9821;SDS011;4950;46.042;14.472;2023-05-29T13:12:27;9.48;;;4.65;;
9821;SDS011;4950;46.042;14.472;2023-05-29T13:14:55;7.25;;;4.45;;
9821;SDS011;4950;46.042;14.472;2023-05-29T13:17:22;7.90;;;4.80;;
9821;SDS011;4950;46.042;14.472;2023-05-29T13:19:49;11.10;;;4.65;;
9821;SDS011;4950;46.042;14.472;2023-05-29T13:22:15;9.25;;;4.90;;
9821;SDS011;4950;46.042;14.472;2023-05-29T13:24:42;9.52;;;5.13;;
9821;SDS011;4950;46.042;14.472;2023-05-29T13:27:08;8.65;;;4.53;;
9821;SDS011;4950;46.042;14.472;2023-05-29T13:29:35;11.63;;;5.15;;
9821;SDS011;4950;46.042;14.472;2023-05-29T13:32:03;8.35;;;4.60;;
9821;SDS011;4950;46.042;14.472;2023-05-29T13:34:30;8.48;;;5.13;;
9821;SDS011;4950;46.042;14.472;2023-05-29T13:36:57;7.60;;;4.70;;
9821;SDS011;4950;46.042;14.472;2023-05-29T13:39:25;9.02;;;4.50;;
9821;SDS011;4950;46.042;14.472;2023-05-29T13:41:52;9.63;;;4.65;;
9821;SDS011;4950;46.042;14.472;2023-05-29T13:44:19;8.02;;;4.40;;
9821;SDS011;4950;46.042;14.472;2023-05-29T13:46:45;11.07;;;4.82;;
9821;SDS011;4950;46.042;14.472;2023-05-29T13:49:13;8.85;;;4.15;;
9821;SDS011;4950;46.042;14.472;2023-05-29T13:51:40;10.95;;;5.18;;
9821;SDS011;4950;46.042;14.472;2023-05-29T13:54:06;10.45;;;5.90;;
9821;SDS011;4950;46.042;14.472;2023-05-29T13:56:33;12.50;;;4.80;;
9821;SDS011;4950;46.042;14.472;2023-05-29T13:59:00;12.13;;;5.18;;
9821;SDS011;4950;46.042;14.472;2023-05-29T14:01:30;9.45;;;4.90;;
9821;SDS011;4950;46.042;14.472;2023-05-29T14:03:57;9.10;;;4.60;;
9821;SDS011;4950;46.042;14.472;2023-05-29T14:06:25;10.55;;;4.95;;
9821;SDS011;4950;46.042;14.472;2023-05-29T14:08:52;9.45;;;5.15;;
9821;SDS011;4950;46.042;14.472;2023-05-29T14:11:20;7.95;;;4.90;;
9821;SDS011;4950;46.042;14.472;2023-05-29T14:13:46;10.63;;;4.97;;
9821;SDS011;4950;46.042;14.472;2023-05-29T14:16:13;13.38;;;5.05;;
9821;SDS011;4950;46.042;14.472;2023-05-29T14:18:40;8.52;;;4.78;;
9821;SDS011;4950;46.042;14.472;2023-05-29T14:21:07;8.68;;;5.20;;
9821;SDS011;4950;46.042;14.472;2023-05-29T14:23:35;10.88;;;4.95;;
9821;SDS011;4950;46.042;14.472;2023-05-29T14:26:01;8.73;;;4.88;;
9821;SDS011;4950;46.042;14.472;2023-05-29T14:28:28;11.30;;;4.68;;
9821;SDS011;4950;46.042;14.472;2023-05-29T14:30:55;11.00;;;5.18;;
9821;SDS011;4950;46.042;14.472;2023-05-29T14:33:21;10.52;;;5.05;;
9821;SDS011;4950;46.042;14.472;2023-05-29T14:35:49;15.88;;;4.53;;
9821;SDS011;4950;46.042;14.472;2023-05-29T14:38:16;9.68;;;4.70;;
9821;SDS011;4950;46.042;14.472;2023-05-29T14:40:44;8.38;;;4.97;;
9821;SDS011;4950;46.042;14.472;2023-05-29T14:43:10;13.23;;;5.15;;
9821;SDS011;4950;46.042;14.472;2023-05-29T14:45:37;9.32;;;4.75;;
9821;SDS011;4950;46.042;14.472;2023-05-29T14:48:04;9.40;;;5.03;;
9821;SDS011;4950;46.042;14.472;2023-05-29T14:50:30;10.43;;;4.53;;
9821;SDS011;4950;46.042;14.472;2023-05-29T14:52:57;7.45;;;4.28;;
9821;SDS011;4950;46.042;14.472;2023-05-29T14:55:24;9.00;;;4.63;;
9821;SDS011;4950;46.042;14.472;2023-05-29T14:57:52;9.10;;;4.93;;
9821;SDS011;4950;46.042;14.472;2023-05-29T15:00:18;9.50;;;5.30;;
9821;SDS011;4950;46.042;14.472;2023-05-29T15:02:46;10.38;;;5.05;;
9821;SDS011;4950;46.042;14.472;2023-05-29T15:05:12;13.88;;;4.95;;
9821;SDS011;4950;46.042;14.472;2023-05-29T15:07:39;11.60;;;4.85;;
9821;SDS011;4950;46.042;14.472;2023-05-29T15:10:06;13.82;;;5.65;;
9821;SDS011;4950;46.042;14.472;2023-05-29T15:12:32;12.60;;;5.53;;
9821;SDS011;4950;46.042;14.472;2023-05-29T15:15:00;10.30;;;4.97;;
9821;SDS011;4950;46.042;14.472;2023-05-29T15:17:27;8.52;;;4.85;;
9821;SDS011;4950;46.042;14.472;2023-05-29T15:19:54;15.88;;;5.32;;
9821;SDS011;4950;46.042;14.472;2023-05-29T15:22:21;11.85;;;5.00;;
9821;SDS011;4950;46.042;14.472;2023-05-29T15:24:48;16.73;;;5.93;;
9821;SDS011;4950;46.042;14.472;2023-05-29T15:27:14;13.55;;;5.57;;
9821;SDS011;4950;46.042;14.472;2023-05-29T15:29:41;11.93;;;5.53;;
9821;SDS011;4950;46.042;14.472;2023-05-29T15:32:09;12.10;;;4.93;;
9821;SDS011;4950;46.042;14.472;2023-05-29T15:34:36;13.90;;;5.70;;